Time;durP1;ratioP1;P1;durP2;ratioP2;P2;SDS_P1;SDS_P2;PMS_P1;PMS_P2;Temp;Humidity;BMP_temperature;BMP_pressure;BME280_temperature;BME280_humidity;BME280_pressure;Samples;Min_cycle;Max_cycle;Signal;HPM_P1;HPM_P2
2022/08/06 00:00:27;;;;;;;14.43;4.65;;;;;;;9.04;100.00;102510.66;6546238;22;20078;-84
2022/08/06 00:02:58;;;;;;;11.52;3.67;;;;;;;8.95;100.00;102512.06;6572353;22;20052;-85
2022/08/06 00:05:29;;;;;;;5.50;3.22;;;;;;;8.84;100.00;102517.19;6544077;22;32353;-84
2022/08/06 00:08:01;;;;;;;6.68;3.63;;;;;;;9.10;100.00;102512.97;6572623;22;19995;-84
2022/08/06 00:10:33;;;;;;;5.00;3.05;;;;;;;8.86;100.00;102516.13;6572605;22;20103;-85
2022/08/06 00:13:05;;;;;;;7.22;4.40;;;;;;;8.68;100.00;102506.59;6544512;22;20008;-84
2022/08/06 00:15:36;;;;;;;6.80;3.80;;;;;;;8.66;100.00;102509.34;6544489;22;20003;-85
2022/08/06 00:18:10;;;;;;;7.22;3.72;;;;;;;8.58;100.00;102500.94;6545726;22;20083;-84
2022/08/06 00:20:42;;;;;;;6.30;3.90;;;;;;;8.71;100.00;102527.66;6572837;22;19995;-84
2022/08/06 00:23:19;;;;;;;9.23;4.60;;;;;;;8.54;100.00;102506.50;6544526;22;20437;-84
2022/08/06 00:25:54;;;;;;;10.85;5.30;;;;;;;9.17;100.00;102518.78;6545232;22;20334;-84
2022/08/06 00:28:25;;;;;;;11.90;5.10;;;;;;;8.83;100.00;102536.75;6546522;22;20357;-85
2022/08/06 00:31:01;;;;;;;6.68;4.72;;;;;;;8.59;100.00;102537.25;6546049;22;20050;-84
2022/08/06 00:33:35;;;;;;;6.55;4.80;;;;;;;8.32;100.00;102547.59;6546154;22;19996;-85
2022/08/06 00:36:07;;;;;;;10.38;4.72;;;;;;;8.24;100.00;102541.84;6572634;22;19996;-84
2022/08/06 00:38:39;;;;;;;6.18;4.68;;;;;;;8.36;100.00;102529.66;6545004;22;19995;-84
2022/08/06 00:41:11;;;;;;;7.90;4.80;;;;;;;8.49;100.00;102526.25;6546356;22;20476;-84
2022/08/06 00:43:45;;;;;;;10.23;5.55;;;;;;;8.99;100.00;102510.09;6571447;22;20046;-84
2022/08/06 00:46:17;;;;;;;6.90;6.20;;;;;;;8.70;100.00;102516.19;6572086;22;19999;-84
2022/08/06 00:48:48;;;;;;;9.18;6.68;;;;;;;8.67;100.00;102550.09;6544787;22;19999;-84
2022/08/06 00:51:26;;;;;;;19.48;7.72;;;;;;;8.40;100.00;102532.06;6572340;22;20106;-84
2022/08/06 00:53:57;;;;;;;10.68;7.18;;;;;;;8.55;100.00;102535.69;6570986;22;20413;-84
2022/08/06 00:56:29;;;;;;;16.35;8.35;;;;;;;8.63;100.00;102561.84;6545179;22;19996;-85
2022/08/06 00:59:03;;;;;;;13.00;6.55;;;;;;;8.60;100.00;102560.22;6544942;22;20002;-85
2022/08/06 01:01:34;;;;;;;10.35;6.72;;;;;;;8.55;100.00;102567.59;6571956;22;19996;-85
2022/08/06 01:04:06;;;;;;;10.43;5.82;;;;;;;8.25;100.00;102570.16;6544229;22;20003;-85
2022/08/06 01:06:38;;;;;;;6.63;5.55;;;;;;;8.01;100.00;102559.94;6573001;22;20074;-85
2022/08/06 01:09:10;;;;;;;11.48;6.15;;;;;;;7.79;100.00;102549.59;6570504;22;20062;-85
2022/08/06 01:11:41;;;;;;;12.13;5.00;;;;;;;8.16;100.00;102583.97;6546045;22;20030;-85
2022/08/06 01:14:13;;;;;;;12.43;6.10;;;;;;;8.56;100.00;102585.28;6544600;22;20048;-85
2022/08/06 01:16:56;;;;;;;13.15;6.40;;;;;;;7.84;100.00;102587.41;6572756;22;19996;-84
2022/08/06 01:19:31;;;;;;;16.83;6.35;;;;;;;7.98;100.00;102589.34;6572636;22;19999;-85
2022/08/06 01:22:40;;;;;;;11.88;7.22;;;;;;;7.95;100.00;102587.69;6572731;22;20410;-85
2022/08/06 01:25:37;;;;;;;14.23;6.35;;;;;;;7.98;100.00;102586.69;6544199;22;20000;-84
2022/08/06 01:28:17;;;;;;;7.43;6.07;;;;;;;7.88;100.00;102588.09;6545293;22;20441;-85
2022/08/06 01:30:52;;;;;;;13.77;7.68;;;;;;;7.71;100.00;102563.31;6573065;22;20122;-85
2022/08/06 01:33:30;;;;;;;12.68;6.28;;;;;;;7.69;100.00;102585.56;6544060;22;19996;-85
2022/08/06 01:36:05;;;;;;;8.52;5.90;;;;;;;7.89;100.00;102581.88;6544120;22;20373;-85
2022/08/06 01:38:48;;;;;;;11.32;6.05;;;;;;;7.61;100.00;102593.94;6544299;22;20318;-84
2022/08/06 01:41:39;;;;;;;9.57;6.90;;;;;;;8.31;100.00;102594.59;6544877;22;20012;-85
2022/08/06 01:44:17;;;;;;;9.63;7.45;;;;;;;8.49;100.00;102555.50;6544838;22;20052;-85
2022/08/06 01:46:55;;;;;;;12.40;8.63;;;;;;;8.26;100.00;102570.06;6572855;22;19999;-84
2022/08/06 01:49:29;;;;;;;13.95;8.77;;;;;;;8.21;100.00;102572.13;6547299;22;20016;-85
2022/08/06 01:52:01;;;;;;;11.60;8.80;;;;;;;8.25;100.00;102592.25;6547365;22;20708;-85
2022/08/06 01:54:40;;;;;;;15.70;8.07;;;;;;;7.81;100.00;102589.38;6545395;22;20007;-85
2022/08/06 01:57:15;;;;;;;12.90;7.88;;;;;;;8.84;100.00;102597.88;6545412;22;20508;-84
2022/08/06 01:59:51;;;;;;;16.90;8.15;;;;;;;8.32;100.00;102598.97;6545465;22;20379;-85
2022/08/06 02:02:28;;;;;;;14.23;8.73;;;;;;;8.13;100.00;102600.91;6572119;22;20070;-84
2022/08/06 02:05:01;;;;;;;12.18;8.10;;;;;;;8.10;100.00;102599.28;6544954;22;20031;-85
2022/08/06 02:07:36;;;;;;;15.80;8.23;;;;;;;7.85;100.00;102564.34;6545484;22;20433;-85
2022/08/06 02:10:11;;;;;;;11.93;6.63;;;;;;;8.06;100.00;102567.63;6544437;22;20019;-85
2022/08/06 02:12:45;;;;;;;10.32;7.88;;;;;;;8.17;100.00;102569.72;6544152;22;20071;-85
2022/08/06 02:15:22;;;;;;;18.23;7.68;;;;;;;8.36;100.00;102602.31;6571082;22;20413;-85
2022/08/06 02:17:58;;;;;;;13.45;8.57;;;;;;;8.08;100.00;102590.56;6571360;22;20361;-85
2022/08/06 02:20:35;;;;;;;12.25;8.30;;;;;;;7.74;100.00;102589.69;6544740;22;20011;-85
2022/08/06 02:23:16;;;;;;;9.23;6.75;;;;;;;7.75;100.00;102562.19;6571710;22;20011;-85
2022/08/06 02:25:50;;;;;;;13.25;7.68;;;;;;;7.85;100.00;102589.09;6543846;22;20061;-85
2022/08/06 02:28:26;;;;;;;10.00;7.85;;;;;;;7.79;100.00;102588.59;6546162;22;19995;-85
2022/08/06 02:31:00;;;;;;;11.00;7.32;;;;;;;7.88;100.00;102601.38;6544097;22;20000;-85
2022/08/06 02:33:39;;;;;;;13.50;8.48;;;;;;;7.62;100.00;102602.75;6544694;22;20426;-85
2022/08/06 02:36:18;;;;;;;12.02;7.65;;;;;;;7.54;100.00;102597.88;6544033;22;20000;-85
2022/08/06 02:38:57;;;;;;;14.05;8.75;;;;;;;7.40;100.00;102580.00;6572576;22;20000;-85
2022/08/06 02:41:40;;;;;;;11.75;7.53;;;;;;;7.39;100.00;102603.00;6545096;22;20035;-85
2022/08/06 02:44:34;;;;;;;12.70;8.13;;;;;;;7.20;100.00;102570.38;6545413;22;20007;-85
2022/08/06 02:47:14;;;;;;;16.48;8.20;;;;;;;7.49;100.00;102599.91;6545092;22;20087;-85
2022/08/06 02:49:52;;;;;;;15.88;9.07;;;;;;;7.35;100.00;102606.75;6571839;22;20004;-85
2022/08/06 02:52:49;;;;;;;15.52;9.20;;;;;;;7.35;100.00;102592.63;6544742;22;20086;-85
2022/08/06 02:55:25;;;;;;;11.18;8.25;;;;;;;7.33;100.00;102611.28;6531505;22;20004;-85
2022/08/06 02:58:04;;;;;;;13.80;8.00;;;;;;;7.19;100.00;102595.22;6544635;22;20003;-85
2022/08/06 03:00:38;;;;;;;12.57;8.23;;;;;;;7.19;100.00;102572.19;6544982;22;20557;-85
2022/08/06 03:03:13;;;;;;;15.95;10.02;;;;;;;7.10;100.00;102575.31;6544528;22;20004;-86
2022/08/06 03:05:45;;;;;;;15.25;9.32;;;;;;;7.39;100.00;102596.84;6571194;22;20130;-84
2022/08/06 03:08:23;;;;;;;18.60;10.25;;;;;;;7.13;100.00;102599.00;6544183;22;20055;-85
2022/08/06 03:10:55;;;;;;;15.32;9.77;;;;;;;7.08;100.00;102602.84;6572086;22;20314;-85
2022/08/06 03:13:28;;;;;;;16.02;9.70;;;;;;;7.01;100.00;102591.66;6545560;22;20004;-86
2022/08/06 03:16:01;;;;;;;16.58;9.73;;;;;;;7.04;100.00;102611.91;6571560;22;20000;-85
2022/08/06 03:18:36;;;;;;;22.13;11.65;;;;;;;7.08;100.00;102616.13;6544941;22;19992;-85
2022/08/06 03:21:09;;;;;;;18.48;10.77;;;;;;;6.90;100.00;102586.06;6544528;22;20003;-85
2022/08/06 03:23:41;;;;;;;12.95;9.80;;;;;;;7.02;100.00;102625.25;6545915;22;19999;-85
2022/08/06 03:26:17;;;;;;;19.48;10.43;;;;;;;6.91;100.00;102614.31;6572609;22;20121;-85
2022/08/06 03:28:50;;;;;;;17.58;10.75;;;;;;;6.99;100.00;102634.22;6544599;22;20494;-85
2022/08/06 03:31:26;;;;;;;12.25;10.13;;;;;;;6.81;100.00;102630.66;6545120;22;20011;-85
2022/08/06 03:33:59;;;;;;;12.95;10.18;;;;;;;6.65;100.00;102629.69;6545468;22;20003;-84
2022/08/06 03:36:33;;;;;;;16.95;10.65;;;;;;;6.68;100.00;102629.53;6545013;22;20504;-85
2022/08/06 03:39:07;;;;;;;12.30;9.55;;;;;;;6.71;100.00;102639.13;6544176;22;20041;-85
2022/08/06 03:41:40;;;;;;;15.60;10.35;;;;;;;6.74;100.00;102631.88;6538388;22;20012;-85
2022/08/06 03:44:11;;;;;;;13.40;10.60;;;;;;;6.70;100.00;102632.97;6538593;22;20010;-85
2022/08/06 03:46:46;;;;;;;16.00;10.85;;;;;;;6.72;100.00;102639.06;6540001;22;20291;-85
2022/08/06 03:49:41;;;;;;;13.98;10.18;;;;;;;6.44;100.00;102637.72;6539377;22;20070;-85
2022/08/06 03:52:21;;;;;;;13.77;8.95;;;;;;;6.12;100.00;102636.56;6539082;22;20453;-85
2022/08/06 03:54:55;;;;;;;10.32;8.27;;;;;;;6.15;100.00;102628.44;6540319;22;20006;-85
2022/08/06 03:57:34;;;;;;;14.25;9.20;;;;;;;6.37;100.00;102646.88;6538176;22;20031;-85
2022/08/06 04:00:11;;;;;;;10.20;9.07;;;;;;;6.42;100.00;102647.53;6538224;22;19997;-84
2022/08/06 04:02:53;;;;;;;10.57;9.20;;;;;;;6.51;100.00;102656.84;6540159;22;20014;-85
2022/08/06 04:05:28;;;;;;;12.77;8.35;;;;;;;6.02;100.00;102648.50;6539236;22;20089;-84
2022/08/06 04:08:05;;;;;;;10.85;8.45;;;;;;;6.27;100.00;102653.53;6539621;22;20006;-84
2022/08/06 04:10:41;;;;;;;12.63;7.88;;;;;;;6.15;100.00;102654.94;6539395;22;20035;-84
2022/08/06 04:13:16;;;;;;;11.65;7.97;;;;;;;6.14;100.00;102661.19;6539120;22;20019;-83
2022/08/06 04:15:49;;;;;;;9.40;8.05;;;;;;;6.27;100.00;102653.53;6539607;22;20000;-84
2022/08/06 04:18:25;;;;;;;14.48;8.80;;;;;;;6.47;100.00;102662.34;6540725;22;20003;-84
2022/08/06 04:21:02;;;;;;;8.33;7.53;;;;;;;6.06;100.00;102658.88;6540883;22;20027;-84
2022/08/06 04:23:34;;;;;;;9.80;8.80;;;;;;;6.29;100.00;102664.06;6540559;22;20456;-84
2022/08/06 04:26:08;;;;;;;12.43;8.50;;;;;;;6.50;100.00;102672.81;6540751;22;19996;-84
2022/08/06 04:28:43;;;;;;;10.65;7.88;;;;;;;6.66;100.00;102676.47;6538123;22;20000;-84
2022/08/06 04:31:16;;;;;;;11.77;7.78;;;;;;;6.48;100.00;102677.34;6539689;22;20004;-84
2022/08/06 04:33:51;;;;;;;11.52;8.65;;;;;;;6.63;100.00;102679.28;6539388;22;20027;-84
2022/08/06 04:36:24;;;;;;;14.15;9.88;;;;;;;6.78;100.00;102669.72;6538781;22;20051;-84
2022/08/06 04:38:56;;;;;;;14.90;11.20;;;;;;;6.93;100.00;102678.75;6541275;22;20004;-84
2022/08/06 04:41:27;;;;;;;16.15;10.70;;;;;;;6.89;100.00;102679.81;6553134;22;20385;-84
2022/08/06 04:43:59;;;;;;;20.25;11.35;;;;;;;7.00;100.00;102667.75;6573589;22;20004;-84
2022/08/06 04:46:32;;;;;;;14.68;10.05;;;;;;;7.19;100.00;102672.19;6573235;22;20390;-84
2022/08/06 04:49:03;;;;;;;15.85;10.68;;;;;;;7.12;100.00;102684.88;6571968;22;20002;-84
2022/08/06 04:51:35;;;;;;;15.25;11.20;;;;;;;7.05;100.00;102683.47;6572274;22;20092;-84
2022/08/06 04:54:06;;;;;;;13.68;11.07;;;;;;;7.13;100.00;102686.59;6572997;22;20073;-83
2022/08/06 04:56:38;;;;;;;17.25;11.10;;;;;;;6.94;100.00;102685.75;6545031;22;20046;-83
2022/08/06 04:59:10;;;;;;;22.15;10.68;;;;;;;7.06;100.00;102693.13;6547108;22;19999;-84
2022/08/06 05:01:41;;;;;;;20.30;12.45;;;;;;;7.03;100.00;102698.63;6559782;22;20045;-83
2022/08/06 05:04:12;;;;;;;21.23;12.30;;;;;;;7.19;100.00;102696.91;6601335;22;20019;-83
2022/08/06 05:07:02;;;;;;;15.68;11.80;;;;;;;7.26;100.00;102700.16;6600965;22;20014;-83
2022/08/06 05:09:33;;;;;;;21.10;12.55;;;;;;;7.28;100.00;102702.72;6601147;22;20016;-84
2022/08/06 05:12:11;;;;;;;15.07;11.50;;;;;;;7.30;100.00;102700.84;6601672;22;19999;-84
2022/08/06 05:14:50;;;;;;;15.52;11.68;;;;;;;8.40;100.00;102699.59;6561187;22;20008;-84
2022/08/06 05:17:26;;;;;;;19.75;14.48;;;;;;;9.01;100.00;102694.50;6556695;22;20000;-84
2022/08/06 05:20:11;;;;;;;21.48;16.70;;;;;;;9.18;100.00;102706.88;6582858;22;19996;-84
2022/08/06 05:22:46;;;;;;;26.10;17.42;;;;;;;9.54;100.00;102719.00;6554876;22;19996;-84
2022/08/06 05:25:17;;;;;;;23.15;16.77;;;;;;;10.01;100.00;102713.50;6578553;22;20004;-84
2022/08/06 05:27:49;;;;;;;26.88;18.60;;;;;;;10.26;100.00;102722.66;6573332;22;19996;-85
2022/08/06 05:30:20;;;;;;;20.05;16.42;;;;;;;10.44;100.00;102722.53;6575054;22;20087;-84
2022/08/06 05:32:52;;;;;;;31.63;23.05;;;;;;;9.95;100.00;102719.19;6545789;22;20138;-85
2022/08/06 05:35:25;;;;;;;30.15;19.75;;;;;;;10.14;100.00;102715.44;6547016;22;20133;-85
2022/08/06 05:37:56;;;;;;;29.80;17.83;;;;;;;10.21;100.00;102722.94;6546838;22;20007;-85
2022/08/06 05:40:33;;;;;;;19.17;15.23;;;;;;;10.29;100.00;102722.50;6545113;22;20305;-85
2022/08/06 05:43:05;;;;;;;19.27;13.73;;;;;;;10.15;100.00;102707.34;6545583;22;20016;-85
2022/08/06 05:45:40;;;;;;;18.08;12.65;;;;;;;10.51;100.00;102727.38;6546170;22;20015;-86
2022/08/06 05:48:14;;;;;;;18.83;12.43;;;;;;;10.66;100.00;102730.00;6546309;22;20032;-85
2022/08/06 05:51:15;;;;;;;19.13;10.80;;;;;;;11.01;100.00;102737.59;6545891;22;20392;-85
2022/08/06 05:53:57;;;;;;;18.20;9.10;;;;;;;11.04;100.00;102734.72;6537788;22;20381;-85
2022/08/06 05:56:34;;;;;;;15.07;8.45;;;;;;;11.61;100.00;102733.66;6545051;22;20015;-85
2022/08/06 05:59:16;;;;;;;13.07;7.60;;;;;;;11.50;100.00;102721.88;6545014;22;20381;-85
2022/08/06 06:01:49;;;;;;;10.35;6.60;;;;;;;11.88;100.00;102728.25;6545812;22;19995;-85
2022/08/06 06:04:22;;;;;;;8.65;5.68;;;;;;;12.38;100.00;102737.28;6545241;22;19996;-86
2022/08/06 06:06:57;;;;;;;11.43;6.10;;;;;;;12.49;100.00;102749.91;6545586;22;20006;-85
2022/08/06 06:09:28;;;;;;;7.70;5.35;;;;;;;12.73;100.00;102743.75;6543527;22;20306;-85
2022/08/06 06:12:04;;;;;;;8.10;4.68;;;;;;;13.05;100.00;102746.81;6544583;22;19995;-85
2022/08/06 06:14:39;;;;;;;7.53;4.80;;;;;;;13.09;100.00;102744.75;6545986;22;20014;-84
2022/08/06 06:18:00;;;;;;;8.17;4.80;;;;;;;13.79;100.00;102744.84;6574150;22;20078;-84
2022/08/06 06:20:53;;;;;;;8.25;4.57;;;;;;;13.79;100.00;102746.69;6475358;23;20041;-85
2022/08/06 06:23:48;;;;;;;9.32;4.30;;;;;;;14.27;100.00;102745.69;6449477;23;20002;-85
2022/08/06 06:26:22;;;;;;;6.40;4.28;;;;;;;14.86;100.00;102734.72;6565597;22;19996;-85
2022/08/06 06:29:02;;;;;;;9.38;3.53;;;;;;;14.51;100.00;102741.06;6547064;22;30304;-85
2022/08/06 06:31:47;;;;;;;7.72;3.72;;;;;;;14.76;100.00;102739.13;6573836;22;20003;-85
2022/08/06 06:34:25;;;;;;;12.27;3.17;;;;;;;15.19;100.00;102738.31;6546307;22;19995;-85
2022/08/06 06:37:05;;;;;;;11.55;3.50;;;;;;;15.67;100.00;102740.59;6546689;22;20000;-85
2022/08/06 06:40:12;;;;;;;12.05;3.80;;;;;;;16.25;100.00;102732.06;6546351;22;20000;-84
2022/08/06 06:42:48;;;;;;;;;;;;;;;16.95;100.00;102734.03;6546710;22;20074;-85
2022/08/06 06:45:42;;;;;;;8.88;2.70;;;;;;;17.46;100.00;102740.19;6545887;22;19913;-85
2022/08/06 06:48:23;;;;;;;6.35;1.90;;;;;;;17.78;100.00;102734.50;6573865;22;19996;-85
2022/08/06 06:51:00;;;;;;;6.80;2.10;;;;;;;18.44;100.00;102730.97;6572616;22;20011;-85
2022/08/06 06:53:37;;;;;;;6.07;1.95;;;;;;;18.29;100.00;102730.56;6545125;22;20061;-86
2022/08/06 06:56:10;;;;;;;10.35;2.78;;;;;;;18.58;100.00;102729.59;6572441;22;20027;-85
2022/08/06 06:58:53;;;;;;;7.22;1.88;;;;;;;18.93;100.00;102729.88;6545989;22;20066;-85
2022/08/06 07:01:27;;;;;;;5.03;1.88;;;;;;;19.13;100.00;102734.16;6544919;22;20073;-85
2022/08/06 07:04:02;;;;;;;7.07;2.20;;;;;;;19.67;100.00;102730.56;6544578;22;20000;-85
2022/08/06 07:06:35;;;;;;;8.57;1.60;;;;;;;19.94;100.00;102733.19;6543621;22;20010;-85
2022/08/06 07:09:09;;;;;;;8.50;1.83;;;;;;;20.18;100.00;102726.25;6546174;22;20074;-85
2022/08/06 07:11:43;;;;;;;5.55;1.33;;;;;;;21.08;100.00;102725.75;6572336;22;20031;-84
2022/08/06 07:14:16;;;;;;;5.55;1.30;;;;;;;21.61;100.00;102732.63;6544859;22;19996;-85
2022/08/06 07:16:50;;;;;;;6.28;1.55;;;;;;;21.21;100.00;102728.81;6575138;22;20007;-85
2022/08/06 07:19:24;;;;;;;7.05;1.10;;;;;;;21.59;100.00;102726.50;6574287;22;20030;-85
2022/08/06 07:21:56;;;;;;;3.95;1.10;;;;;;;22.03;100.00;102736.97;6545988;22;20008;-85
2022/08/06 07:24:31;;;;;;;3.40;1.00;;;;;;;22.26;100.00;102733.53;6543480;22;20082;-85
2022/08/06 07:27:06;;;;;;;3.13;0.75;;;;;;;22.03;100.00;102736.97;6544177;22;20004;-84
2022/08/06 07:29:40;;;;;;;2.47;0.90;;;;;;;22.28;100.00;102740.53;6543253;22;20010;-84
2022/08/06 07:32:11;;;;;;;2.15;0.80;;;;;;;23.19;100.00;102735.53;6573530;22;20007;-83
2022/08/06 07:34:44;;;;;;;3.65;1.48;;;;;;;23.10;100.00;102747.47;6548895;22;19991;-86
2022/08/06 07:37:20;;;;;;;7.35;0.90;;;;;;;23.33;100.00;102746.66;6547979;22;20094;-85
2022/08/06 07:39:54;;;;;;;3.85;0.95;;;;;;;23.46;100.00;102746.91;6573106;22;20048;-85
2022/08/06 07:42:27;;;;;;;3.42;0.95;;;;;;;23.84;100.00;102751.53;6546049;22;20011;-85
2022/08/06 07:45:01;;;;;;;3.47;1.10;;;;;;;23.69;100.00;102746.03;6546341;22;19996;-86
2022/08/06 07:47:39;;;;;;;7.40;0.90;;;;;;;23.86;100.00;102755.78;6573039;22;20000;-85
2022/08/06 07:50:13;;;;;;;4.00;1.30;;;;;;;24.26;100.00;102748.19;6574080;22;20014;-86
2022/08/06 07:52:44;;;;;;;6.80;1.17;;;;;;;24.44;100.00;102758.75;6548152;22;20337;-85
2022/08/06 07:55:17;;;;;;;12.88;1.85;;;;;;;24.61;100.00;102753.97;6577711;22;20000;-85
2022/08/06 07:57:49;;;;;;;5.07;1.10;;;;;;;24.57;100.00;102751.81;6554909;22;19999;-85
2022/08/06 08:00:22;;;;;;;9.68;1.40;;;;;;;25.64;100.00;102751.94;6553154;22;20006;-86
2022/08/06 08:08:35;;;;;;;4.35;1.00;;;;;;;25.14;100.00;102756.50;6582784;22;20008;-86
2022/08/06 08:11:07;;;;;;;4.88;0.77;;;;;;;26.02;100.00;102762.59;6577330;22;20014;-86
2022/08/06 08:13:39;;;;;;;2.83;0.85;;;;;;;26.59;100.00;102760.59;6573638;22;20371;-86
2022/08/06 08:16:14;;;;;;;3.17;0.60;;;;;;;26.80;100.00;102764.28;6545564;22;20091;-85
2022/08/06 08:18:46;;;;;;;7.68;0.90;;;;;;;26.87;92.36;102764.31;6544793;22;19995;-86
2022/08/06 08:21:19;;;;;;;3.63;0.63;;;;;;;27.57;94.99;102764.06;6545491;22;20007;-86
2022/08/06 08:23:54;;;;;;;3.42;0.85;;;;;;;27.96;93.10;102765.13;6544759;22;19996;-86
2022/08/06 08:26:25;;;;;;;2.63;0.63;;;;;;;27.76;85.72;102763.22;6545606;22;20004;-86
2022/08/06 08:28:57;;;;;;;5.07;1.00;;;;;;;27.92;99.50;102757.34;6545734;22;20010;-85
2022/08/06 08:31:32;;;;;;;6.40;1.00;;;;;;;28.67;81.33;102767.09;6545075;22;20026;-85
2022/08/06 08:34:03;;;;;;;4.57;0.70;;;;;;;29.29;62.68;102764.66;6544475;22;20058;-85
2022/08/06 08:36:34;;;;;;;2.70;0.85;;;;;;;29.78;58.88;102762.19;6572771;22;19995;-85
2022/08/06 08:39:06;;;;;;;2.60;0.73;;;;;;;29.08;74.69;102757.56;6546867;22;20082;-85
2022/08/06 08:41:45;;;;;;;2.92;0.90;;;;;;;29.69;59.15;102758.84;6547526;22;20434;-85
2022/08/06 08:44:24;;;;;;;2.33;0.95;;;;;;;29.99;57.51;102760.94;6547705;22;20440;-86
2022/08/06 08:46:58;;;;;;;2.08;0.80;;;;;;;30.29;81.75;102763.78;6573676;22;20438;-84
2022/08/06 08:49:37;;;;;;;2.08;0.70;;;;;;;30.58;67.69;102757.78;6573167;22;20061;-85
2022/08/06 08:52:14;;;;;;;2.03;0.90;;;;;;;31.11;65.17;102759.81;6546286;22;19995;-85
2022/08/06 08:54:49;;;;;;;3.33;0.80;;;;;;;30.45;44.50;102758.78;6572306;22;20049;-85
2022/08/06 08:57:22;;;;;;;8.75;1.30;;;;;;;28.96;46.01;102765.69;6572928;22;20034;-84
2022/08/06 08:59:54;;;;;;;6.15;0.60;;;;;;;28.62;77.72;102770.50;6545394;22;19998;-84
2022/08/06 09:02:26;;;;;;;3.60;0.90;;;;;;;27.39;54.56;102757.31;6546145;22;20055;-84
2022/08/06 09:04:58;;;;;;;3.75;0.63;;;;;;;28.18;60.04;102772.06;6546495;22;20050;-85
2022/08/06 09:07:31;;;;;;;2.22;0.43;;;;;;;29.31;50.42;102764.44;6546202;22;20031;-86
2022/08/06 09:10:05;;;;;;;3.13;0.60;;;;;;;30.83;45.09;102775.03;6546344;22;20008;-85
2022/08/06 09:12:37;;;;;;;3.28;0.80;;;;;;;30.16;38.93;102766.69;6572530;22;20002;-85
2022/08/06 09:15:09;;;;;;;2.17;0.70;;;;;;;30.12;41.66;102769.06;6544726;22;19996;-83
2022/08/06 09:17:40;;;;;;;3.53;0.95;;;;;;;28.09;56.49;102767.88;6544496;22;20000;-85
2022/08/06 09:20:12;;;;;;;3.05;0.50;;;;;;;28.64;46.41;102775.75;6544817;22;20127;-83
2022/08/06 09:22:48;;;;;;;1.90;0.60;;;;;;;30.13;49.33;102775.41;6545246;22;20422;-82
2022/08/06 09:25:37;;;;;;;3.08;0.80;;;;;;;32.41;41.27;102774.56;6571600;22;20051;-84
2022/08/06 09:28:10;;;;;;;3.38;0.68;;;;;;;32.23;32.61;102772.81;6545163;22;20078;-85
2022/08/06 09:30:57;;;;;;;2.03;0.55;;;;;;;33.95;35.21;102770.22;6572614;22;20373;-84
2022/08/06 09:33:30;;;;;;;1.60;0.60;;;;;;;33.58;35.33;102779.03;6545013;22;20034;-85
2022/08/06 09:36:14;;;;;;;2.80;0.68;;;;;;;34.27;35.00;102774.00;6545419;22;20303;-85
2022/08/06 09:38:52;;;;;;;2.83;0.50;;;;;;;35.21;33.59;102769.31;6544952;22;20083;-85
2022/08/06 09:41:26;;;;;;;2.38;0.82;;;;;;;34.73;39.73;102775.72;6575303;22;20008;-84
2022/08/06 09:43:58;;;;;;;2.15;0.63;;;;;;;35.00;30.62;102776.56;6548595;22;20008;-84
2022/08/06 09:46:37;;;;;;;9.43;1.13;;;;;;;32.81;42.03;102781.22;6574957;22;20418;-84
2022/08/06 09:49:11;;;;;;;3.45;0.60;;;;;;;30.57;35.46;102780.88;6548641;22;20006;-84
2022/08/06 09:51:43;;;;;;;3.45;0.82;;;;;;;29.08;53.09;102784.22;6546599;22;20012;-84
2022/08/06 09:54:18;;;;;;;3.42;0.90;;;;;;;29.17;48.17;102781.03;6545626;22;20000;-84
2022/08/06 09:56:57;;;;;;;1.95;0.70;;;;;;;31.22;50.66;102781.06;6546280;22;20004;-84
2022/08/06 09:59:41;;;;;;;2.35;0.70;;;;;;;33.26;36.84;102777.66;6545553;22;20007;-85
2022/08/06 10:02:18;;;;;;;2.30;0.43;;;;;;;33.62;37.96;102782.97;6545248;22;20002;-85
2022/08/06 10:04:50;;;;;;;3.88;0.52;;;;;;;33.69;31.53;102780.91;6545656;22;20000;-84
2022/08/06 10:07:30;;;;;;;1.77;0.60;;;;;;;34.68;42.54;102773.69;6573619;22;20002;-84
2022/08/06 10:10:02;;;;;;;4.05;0.50;;;;;;;34.48;32.06;102774.28;6545547;22;20119;-83
2022/08/06 10:12:33;;;;;;;4.65;1.00;;;;;;;35.28;28.52;102768.25;6547109;22;20007;-84
2022/08/06 10:15:05;;;;;;;1.02;0.40;;;;;;;35.42;29.46;102768.66;6546722;22;20341;-83
2022/08/06 10:17:45;;;;;;;3.33;0.50;;;;;;;36.83;31.91;102765.28;6547100;22;20062;-83
2022/08/06 10:20:17;;;;;;;1.35;0.40;;;;;;;36.94;24.91;102778.13;6573385;22;20023;-83
2022/08/06 10:22:54;;;;;;;1.63;0.40;;;;;;;36.70;32.81;102758.31;6574949;22;20425;-83
2022/08/06 10:25:29;;;;;;;4.13;0.40;;;;;;;37.05;30.21;102770.63;6572569;22;19999;-85
2022/08/06 10:28:01;;;;;;;1.83;0.47;;;;;;;36.66;33.26;102759.94;6573413;22;20003;-85
2022/08/06 10:30:33;;;;;;;1.65;0.55;;;;;;;37.28;22.84;102747.84;6546260;22;20010;-84
2022/08/06 10:33:10;;;;;;;2.00;0.68;;;;;;;38.31;24.70;102750.44;6548965;22;20042;-85
2022/08/06 10:35:43;;;;;;;2.38;0.40;;;;;;;38.11;21.56;102753.31;6578831;22;20034;-85
2022/08/06 10:38:19;;;;;;;2.22;0.68;;;;;;;37.61;28.40;102755.88;6583136;22;19996;-84
2022/08/06 10:40:52;;;;;;;0.88;0.60;;;;;;;37.44;28.72;102753.41;6554196;22;20006;-82
2022/08/06 10:43:24;;;;;;;1.88;0.47;;;;;;;37.63;23.07;102754.47;6558904;22;20006;-85
2022/08/06 10:45:56;;;;;;;1.45;0.30;;;;;;;37.19;31.85;102746.72;6579654;22;20075;-84
2022/08/06 10:48:27;;;;;;;1.77;0.60;;;;;;;38.49;27.81;102746.16;6581674;22;20023;-84
2022/08/06 10:51:00;;;;;;;2.47;0.50;;;;;;;38.91;22.60;102739.22;6578189;22;20357;-85
2022/08/06 10:53:37;;;;;;;0.88;0.30;;;;;;;39.47;28.05;102737.97;6547117;22;20003;-85
2022/08/06 10:56:11;;;;;;;1.38;0.40;;;;;;;39.39;23.00;102743.31;6575064;22;20098;-85
2022/08/06 10:58:48;;;;;;;2.58;0.40;;;;;;;39.99;20.26;102735.47;6549281;22;20026;-86
2022/08/06 11:01:40;;;;;;;2.72;0.68;;;;;;;40.64;20.84;102732.09;6551036;22;20427;-85
2022/08/06 11:04:17;;;;;;;0.80;0.30;;;;;;;36.75;27.72;102740.81;6579746;22;19999;-84
2022/08/06 11:07:22;;;;;;;1.63;0.40;;;;;;;35.83;28.47;102730.13;6579817;22;20421;-84
2022/08/06 11:10:26;;;;;;;4.32;0.40;;;;;;;36.81;29.89;102736.94;6579457;22;20008;-85
2022/08/06 11:13:16;;;;;;;1.98;0.43;;;;;;;37.31;25.97;102737.25;6546611;22;20007;-85
2022/08/06 11:15:47;;;;;;;2.97;0.50;;;;;;;37.43;21.81;102735.88;6545877;22;19999;-86
2022/08/06 11:18:19;;;;;;;1.83;0.50;;;;;;;37.83;26.01;102719.38;6575231;22;20410;-85
2022/08/06 11:20:52;;;;;;;1.70;0.63;;;;;;;38.32;23.64;102717.81;6575180;22;20007;-85
2022/08/06 11:23:27;;;;;;;2.00;0.50;;;;;;;38.36;23.50;102732.84;6546920;22;20019;-85
2022/08/06 11:26:03;;;;;;;1.30;0.43;;;;;;;38.74;27.57;102722.88;6573843;22;20003;-85
2022/08/06 11:28:34;;;;;;;2.95;0.40;;;;;;;37.97;22.30;102726.00;6572876;22;20034;-85
2022/08/06 11:31:07;;;;;;;1.00;0.30;;;;;;;38.69;21.70;102722.91;6546658;22;20429;-85
2022/08/06 11:33:38;;;;;;;1.15;0.40;;;;;;;38.00;27.22;102722.66;6546652;22;20117;-85
2022/08/06 11:36:24;;;;;;;1.27;0.37;;;;;;;39.46;20.48;102724.25;6546858;22;20007;-86
2022/08/06 11:38:57;;;;;;;1.08;0.57;;;;;;;38.47;24.51;102719.72;6545737;22;19995;-87
2022/08/06 11:41:32;;;;;;;1.30;0.30;;;;;;;39.19;22.02;102716.44;6545879;22;20014;-87
2022/08/06 11:44:05;;;;;;;2.15;0.40;;;;;;;39.79;20.29;102724.50;6573770;22;19996;-87
2022/08/06 11:46:41;;;;;;;0.95;0.40;;;;;;;39.56;23.57;102717.78;6546497;22;20042;-86
2022/08/06 11:49:24;;;;;;;1.60;0.40;;;;;;;40.22;21.76;102707.78;6568700;22;20432;-86
2022/08/06 11:51:59;;;;;;;1.33;0.32;;;;;;;40.77;20.21;102690.50;6544079;22;20367;-87
2022/08/06 11:54:43;;;;;;;1.40;0.60;;;;;;;39.69;26.14;102703.09;6544200;22;20000;-86
2022/08/06 11:57:14;;;;;;;1.30;0.55;;;;;;;38.22;20.27;102701.97;6545254;22;20006;-84
2022/08/06 11:59:53;;;;;;;2.63;0.55;;;;;;;39.97;21.11;102706.16;6545322;22;20507;-84
2022/08/06 12:02:39;;;;;;;1.38;0.25;;;;;;;40.47;19.69;102703.84;6574044;22;19992;-86
2022/08/06 12:05:13;;;;;;;1.80;0.40;;;;;;;39.86;21.38;102694.25;6546295;22;20073;-86